AirNav   Air Wisconsin Up To $57,000 Bonus
 
 908 users online  

FD67 Lee Memorial Hospital Emergency Heliport
Fort Myers, Florida, USA

GOING TO FORT MYERS?


FAA INFORMATION EFFECTIVE 26 MARCH 2020

Location

FAA Identifier: FD67
Lat/Long: 26-37-43.5000N 081-52-29.0000W
26-37.725000N 081-52.483333W
26.6287500,-81.8747222
(estimated)
Elevation: 12 ft. / 4 m (estimated)
Variation: 02W (1985)
Time zone: UTC -4 (UTC -5 during Standard Time)
Zip code: 33901

Heliport Operations

Heliport use: Private use, MEDICAL.
Activation date: 05/1986
Control tower: no
ARTCC: MIAMI CENTER
FSS: MIAMI FLIGHT SERVICE STATION
Attendance: CONTINUOUS
Wind indicator: yes
Segmented circle: yes
Lights: FOR PERIMETER LGTS CALL 813-334-5120.

Heliport Communications

WX ASOS at FMY (2.6 nm S): 123.725 (239-936-2318)
WX ASOS at RSW (8 nm SE): PHONE 239-561-0966
WX ASOS at PGD (18 nm N): 135.675 (941-639-0076)

Nearby radio navigation aids

VOR radial/distance  VOR name  Freq  Var
RSWr320/8.0LEE COUNTY VORTAC111.8002W
PGDr166/(18.4)PUNTA GORDA VOR110.2006W
LBVr244/28.5LA BELLE VORTAC110.4001E
CYYr353/29.0CYPRESS VOR/DME108.6003W

 
NDB name  Hdg/Dist  Freq  Var  ID
CALOO034/7.934103WFM ..-. --

Heliport Services

Runway Information

Helipad H1

Dimensions: 60 x 60 ft. / 18 x 18 m
Surface: asphalt, in good condition
Runway edge lights: PERI
Latitude: 26-37.725000N
Longitude: 081-52.483333W
Elevation: 12.0 ft.
Traffic pattern: leftleft
Markings: basic, in good condition

Heliport Ownership and Management from official FAA records

Ownership: Publicly-owned
Owner: LEE MEMORIAL HOSPITAL
2776 CLEVELAND AVE
FORT MYERS, FL 33901
Phone 239-343-2622
HOSPITAL BOARD OF DIRECTORS OF LEE COUNTY.
Manager: ROD ALLEN
LEE MEMORIAL HOSPITAL, 4211 METRO PARKWAY
FORT MYERS, FL 33916
Phone 239-343-8545
EMERGENCY DEPT.

Additional Remarks

A52-H1 20 FT LGT POLES 53 FT NORTH OF HELIPAD.
FOR CD CTC FORT MYERS APCH AT 239-768-1377, WHEN APCH CLSD CTC MIAMI ARTCC AT 305-716-1731.

Instrument Procedures

There are no published instrument procedures at FD67.

Some nearby airports with instrument procedures:

KFMY - Page Field Airport (3 nm S)
KRSW - Southwest Florida International Airport (8 nm SE)
KPGD - Punta Gorda Airport (18 nm N)
X14 - La Belle Municipal Airport (25 nm E)
KIMM - Immokalee Regional Airport (28 nm SE)
 
Loc | Ops | Rwys | IFR | FBO | Links
Com | Nav | Svcs | Stats | Notes

Reliance Aviation
AirBoss

 
Area around FD67 (Lee Memorial Hospital Emergency Heliport)
 
Road maps at: MapQuest Bing Google
 
Aerial photo
No photo
 
Sectional chart

 
Airport distance calculator
Flying to Lee Memorial Hospital Emergency Heliport? Find the distance to fly.

From to FD67

Sunrise and sunset
Times for 29-Mar-2020
 Local
(UTC-4)
 Zulu
(UTC)
Morning civil twilight06:5810:58
Sunrise07:2211:22
Sunset19:4323:43
Evening civil twilight20:0600:06

Current date and time
Zulu (UTC)  29-Mar-2020 20:47:56
Local (UTC-4)  29-Mar-2020 16:47:56
 
METAR
KFMY 
3nm S 
291953Z VRB04KT 10SM CLR 31/20 A3009 RMK AO2 SLP191 T03110200
KRSW 
8nm SE 
291953Z 25008KT 10SM CLR 31/21 A3009 RMK AO2 SLP188 T03060206
KPGD 
19nm N 
291953Z 26011KT 10SM FEW050 31/19 A3012 RMK AO2 SLP197 T03060194
TAF
KFMY 
3nm S 
291733Z 2918/3018 15008KT P6SM FEW035 FEW250 FM292000 23009KT P6SM FEW040 FEW250 FM300100 VRB03KT P6SM SKC FM300900 VRB03KT 6SM BR FEW010 FM301400 14005KT P6SM FEW020 SCT250
KRSW 
8nm SE 
291733Z 2918/3018 15009KT P6SM SCT035 SCT250 FM292000 22009KT P6SM FEW040 FEW250 FM300100 VRB03KT P6SM SKC FM300900 VRB03KT 6SM BR FEW010 FM301400 14005KT P6SM FEW020 SCT250
KPGD 
19nm N 
291733Z 2918/3018 15008KT P6SM FEW040 FEW250 FM292000 23009KT P6SM FEW045 FEW250 FM300100 VRB03KT P6SM SKC FM300900 VRB03KT 6SM BR SCT010 FM301400 15005KT P6SM FEW020 SCT250
NOTAMs
Click for the latest NOTAMs
NOTAMs are issued by the DoD/FAA and will open in a separate window not controlled by AirNav.

 

 
 

Would you like to see your business listed on this page?

 If your business provides an interesting product or service to pilots, flight crews, aircraft, or users of the Lee Memorial Hospital Emergency Heliport, you should consider listing it here.  To start the listing process, click on the button below
 
Add a business
 

Other Pages about Lee Memorial Hospital Emergency Heliport

Update a link
 
Copyright © AirNav, LLC. All rights reserved. Privacy Policy  Contact